Latest Weather Observations for Smithton

IDT60801

Issued at 8:31 am EDT Tuesday 6 December 2022 (issued every 10 minutes, with the page automatically refreshed every 10 minutes)

About weather observations | Map of weather stations | Latest weather observations for TAS | Other Formats
Station Details ID: 091292 Name: SMITHTON AERODROME Lat: -40.83 Lon: 145.08 Height: 7.5 m
Data from the previous 72 hours. | See also: Recent months at Smithton
Date/Time
EDT
Temp
°C
App
Temp
°C
Dew
Point
°C
Rel
Hum
%
Delta-T
°C
Wind Press
QNH
hPa
Press
MSL
hPa
Rain since
9am
mm
Dir  Spd
km/h
Gust
km/h
Spd
kts
Gust
kts
06/08:30am 11.0 9.1 7.5 79 1.7 SSW 7 9 4 5 1013.4 1013.4 0.0
06/08:00am 10.2 7.7 8.1 87 1.0 S 11 13 6 7 1013.3 1013.3 0.0
06/07:30am 9.2 6.5 7.5 89 0.8 S 11 13 6 7 1013.3 1013.3 0.0
06/07:00am 8.0 4.9 7.1 94 0.4 SSW 13 15 7 8 1013.3 1013.3 0.0
06/06:30am 7.2 3.9 6.6 96 0.3 S 13 15 7 8 1013.3 1013.3 0.0
06/06:00am 6.0 3.3 5.4 96 0.3 S 9 11 5 6 1013.1 1013.1 0.0
06/05:30am 5.8 3.0 5.1 95 0.3 S 9 11 5 6 1013.0 1013.0 0.0
06/05:00am 6.6 3.9 5.7 94 0.4 S 9 11 5 6 1013.0 1013.0 0.0
06/04:30am 7.0 4.9 5.9 93 0.5 SSE 6 9 3 5 1013.1 1013.1 0.0
06/04:00am 6.8 3.7 5.7 93 0.5 SSE 11 13 6 7 1013.0 1013.0 0.0
06/03:30am 7.5 6.4 6.8 95 0.3 SSE 2 7 1 4 1013.1 1013.1 0.0
06/03:00am 7.2 5.9 6.1 93 0.5 SSW 2 6 1 3 1013.0 1013.0 0.0
06/02:30am 7.5 4.2 6.6 94 0.4 S 13 15 7 8 1013.0 1013.0 0.0
06/02:00am 7.5 4.2 6.4 93 0.5 SSW 13 13 7 7 1013.1 1013.1 0.0
06/01:30am 7.8 4.9 6.6 92 0.6 SSW 11 13 6 7 1013.1 1013.1 0.0
06/01:00am 8.1 4.9 6.9 92 0.6 SSW 13 15 7 8 1013.1 1013.1 0.0
06/12:30am 8.3 6.4 6.8 90 0.7 SSE 6 9 3 5 1013.2 1013.2 0.0
06/12:00am 9.3 5.9 7.7 90 0.8 SSW 15 17 8 9 1013.3 1013.3 0.0
 
Date/Time
EDT
Temp
°C
App
Temp
°C
Dew
Point
°C
Rel
Hum
%
Delta-T
°C
Wind Press
QNH
hPa
Press
MSL
hPa
Rain since
9am
mm
Dir  Spd
km/h
Gust
km/h
Spd
kts
Gust
kts
05/11:30pm 9.3 6.9 7.1 86 1.0 SW 9 11 5 6 1013.3 1013.3 0.0
05/11:00pm 10.5 7.5 7.9 84 1.3 SSW 13 19 7 10 1013.3 1013.3 0.0
05/10:30pm 11.4 7.8 8.3 81 1.5 S 17 20 9 11 1013.3 1013.3 0.0
05/10:00pm 12.1 7.9 8.4 78 1.8 S 20 26 11 14 1013.1 1013.1 0.0
05/09:30pm 12.8 9.3 8.7 76 2.0 S 17 24 9 13 1012.8 1012.8 0.0
05/09:00pm 13.4 9.6 8.9 74 2.3 S 19 26 10 14 1012.3 1012.3 0.0
05/08:30pm 14.5 10.8 9.5 72 2.6 S 19 26 10 14 1011.8 1011.8 0.0
05/08:00pm 15.8 11.2 9.5 66 3.3 S 24 35 13 19 1011.3 1011.3 0.0
05/07:30pm 17.0 12.1 9.9 63 3.7 SSW 26 35 14 19 1010.7 1010.7 0.0
05/07:00pm 18.4 12.5 10.3 59 4.3 SSW 32 39 17 21 1009.9 1009.9 0.0
05/06:30pm 19.3 14.0 11.1 59 4.5 SSW 30 41 16 22 1009.3 1009.3 0.0
05/06:00pm 18.2 12.3 10.6 61 4.1 SSW 32 44 17 24 1008.8 1008.8 0.0
05/05:30pm 19.7 13.6 10.4 55 5.0 S 33 46 18 25 1008.5 1008.5 0.0
05/05:00pm 20.4 14.6 11.6 57 4.9 S 33 44 18 24 1008.0 1008.0 0.0
05/04:30pm 20.6 14.3 11.0 54 5.3 S 35 48 19 26 1007.8 1007.8 0.0
05/04:00pm 20.8 14.2 11.2 54 5.3 S 37 48 20 26 1007.7 1007.7 0.0
05/03:30pm 20.9 14.2 11.0 53 5.4 S 37 50 20 27 1007.5 1007.5 0.0
05/03:00pm 21.5 15.5 12.1 55 5.3 SSW 35 48 19 26 1007.2 1007.2 0.0
05/02:30pm 20.9 13.1 11.3 54 5.3 SSW 43 52 23 28 1007.0 1007.0 0.0
05/02:00pm 21.1 14.2 11.7 55 5.2 SSW 39 50 21 27 1007.0 1007.0 0.0
05/01:30pm 21.0 14.1 11.6 55 5.2 SSW 39 48 21 26 1006.8 1006.8 0.0
05/01:00pm 20.9 15.1 12.6 59 4.7 S 35 50 19 27 1006.6 1006.6 0.0
05/12:30pm 20.0 13.3 12.3 61 4.3 S 39 56 21 30 1006.5 1006.5 0.0
05/12:00pm 18.9 12.8 13.1 69 3.3 S 37 50 20 27 1006.5 1006.5 0.0
05/11:42am 19.1 12.7 12.1 64 3.9 S 37 57 20 31 1006.4 1006.4 0.0
05/11:30am 18.2 11.9 12.2 68 3.3 S 37 50 20 27 1006.4 1006.4 0.0
05/11:00am 17.8 11.8 12.0 69 3.2 S 35 54 19 29 1006.3 1006.3 0.0
05/10:52am 17.8 11.9 12.5 71 2.9 S 35 54 19 29 1006.2 1006.2 0.0
05/10:30am 17.8 12.5 13.1 74 2.6 S 33 44 18 24 1006.2 1006.2 0.0
05/10:02am 16.8 9.9 11.7 72 2.8 S 39 57 21 31 1006.0 1006.0 0.0
05/10:00am 16.9 9.6 11.6 71 2.9 SSW 41 57 22 31 1006.0 1006.0 0.0
05/09:30am 16.3 10.3 12.1 76 2.3 SSW 35 54 19 29 1005.9 1005.9 0.0
05/09:00am 16.2 9.9 12.4 78 2.1 SSW 37 57 20 31 1005.6 1005.6 0.2
05/08:51am 16.4 9.7 12.2 76 2.3 SSW 39 57 21 31 1005.4 1005.4 0.2
05/08:30am 16.5 10.7 12.7 78 2.1 SSW 35 44 19 24 1005.4 1005.4 0.2
05/08:00am 15.4 10.4 12.3 82 1.7 SSW 30 39 16 21 1005.4 1005.4 0.2
05/07:30am 15.3 10.5 12.8 85 1.4 SSW 30 41 16 22 1004.9 1004.9 0.2
05/07:00am 15.1 10.2 12.6 85 1.4 SSW 30 43 16 23 1004.5 1004.5 0.2
05/06:30am 14.6 10.0 12.3 86 1.3 SSW 28 37 15 20 1004.1 1004.1 0.2
05/06:00am 13.8 9.1 12.0 89 1.0 SSW 28 37 15 20 1003.9 1003.9 0.2
05/05:30am 13.4 9.9 12.1 92 0.7 SSW 22 28 12 15 1003.5 1003.5 0.2
05/05:00am 13.1 9.9 12.0 93 0.6 SSW 20 28 11 15 1003.2 1003.2 0.2
05/04:30am 13.3 10.4 12.2 93 0.6 SSW 19 26 10 14 1002.9 1002.9 0.2
05/04:00am 13.6 11.2 12.5 93 0.6 SSW 17 24 9 13 1002.8 1002.8 0.2
05/03:30am 14.0 11.0 12.7 92 0.7 SSW 20 26 11 14 1002.9 1002.9 0.2
05/03:00am 14.1 13.4 13.1 94 0.6 SSW 9 13 5 7 1003.1 1003.1 0.2
05/02:30am 14.6 13.3 13.6 94 0.6 S 13 17 7 9 1003.1 1003.1 0.2
05/02:00am 14.3 13.3 13.5 95 0.4 S 11 13 6 7 1003.8 1003.8 0.2
05/01:30am 13.8 12.7 13.0 95 0.4 SSW 11 11 6 6 1004.6 1004.6 0.2
05/01:00am 13.9 13.1 12.8 93 0.6 SW 9 9 5 5 1004.6 1004.6 0.2
05/12:30am 14.6 14.2 13.1 91 0.8 S 7 15 4 8 1004.7 1004.7 0.2
05/12:00am 14.9 14.4 13.8 93 0.6 SW 9 19 5 10 1004.4 1004.4 0.2
 
Date/Time
EDT
Temp
°C
App
Temp
°C
Dew
Point
°C
Rel
Hum
%
Delta-T
°C
Wind Press
QNH
hPa
Press
MSL
hPa
Rain since
9am
mm
Dir  Spd
km/h
Gust
km/h
Spd
kts
Gust
kts
04/11:30pm 15.2 16.4 13.7 91 0.8 CALM 0 0 0 0 1005.1 1005.1 0.2
04/11:00pm 15.4 15.5 13.8 90 0.9 SW 6 11 3 6 1005.3 1005.3 0.2
04/10:30pm 15.8 16.6 13.6 87 1.2 E 2 9 1 5 1005.4 1005.4 0.2
04/10:00pm 16.3 14.0 14.0 86 1.3 E 19 28 10 15 1004.8 1004.8 0.2
04/09:30pm 16.2 14.6 14.0 87 1.2 ENE 15 19 8 10 1005.3 1005.3 0.2
04/09:00pm 16.1 14.5 13.9 87 1.2 ENE 15 19 8 10 1005.5 1005.5 0.2
04/08:30pm 16.3 14.3 14.0 86 1.3 ENE 17 22 9 12 1005.3 1005.3 0.2
04/08:00pm 16.5 15.0 14.2 86 1.3 ENE 15 20 8 11 1005.6 1005.6 0.2
04/07:30pm 16.9 14.6 14.2 84 1.5 ENE 19 24 10 13 1005.8 1005.8 0.2
04/07:00pm 16.7 13.9 14.2 85 1.4 ENE 22 33 12 18 1005.5 1005.5 0.2
04/06:30pm 17.1 15.0 14.6 85 1.4 ENE 19 26 10 14 1005.7 1005.7 0.2
04/06:00pm 18.0 15.7 14.7 81 1.9 ENE 20 28 11 15 1005.8 1005.8 0.2
04/05:30pm 18.7 16.4 14.6 77 2.4 NE 20 26 11 14 1006.3 1006.3 0.2
04/05:00pm 18.7 16.4 14.6 77 2.4 ENE 20 26 11 14 1006.7 1006.7 0.2
04/04:30pm 19.1 16.7 14.4 74 2.7 ENE 20 26 11 14 1007.2 1007.2 0.2
04/04:00pm 19.4 16.9 14.0 71 3.1 ENE 20 28 11 15 1007.5 1007.5 0.2
04/03:30pm 19.5 15.3 12.5 64 3.9 ENE 26 32 14 17 1007.9 1007.9 0.2
04/03:00pm 19.5 16.6 13.9 70 3.2 ENE 22 30 12 16 1008.2 1008.2 0.2
04/02:30pm 19.5 16.5 14.7 74 2.8 NE 24 32 13 17 1008.5 1008.5 0.2
04/02:00pm 19.5 16.1 14.7 74 2.8 NNE 26 33 14 18 1009.1 1009.1 0.2
04/01:30pm 20.7 18.5 14.8 69 3.5 NE 20 30 11 16 1009.5 1009.5 0.2
04/01:00pm 20.8 18.5 15.6 72 3.1 NE 22 28 12 15 1009.8 1009.8 0.2
04/12:30pm 20.2 17.6 15.0 72 3.1 NE 22 30 12 16 1010.0 1010.0 0.2
04/12:00pm 19.5 16.7 14.3 72 3.0 NE 22 28 12 15 1010.4 1010.4 0.2
04/11:30am 19.7 17.3 14.5 72 3.0 NE 20 26 11 14 1010.8 1010.8 0.2
04/11:00am 19.2 16.5 14.5 74 2.7 NE 22 28 12 15 1010.9 1010.9 0.2
04/10:30am 18.5 16.4 13.6 73 2.8 NE 17 22 9 12 1011.2 1011.2 0.2
04/10:00am 18.3 16.7 14.0 76 2.5 NNE 15 20 8 11 1011.4 1011.4 0.0
04/09:30am 18.0 17.1 13.7 76 2.4 NE 11 17 6 9 1011.5 1011.5 0.0
04/09:00am 16.2 15.8 13.1 82 1.7 ENE 7 11 4 6 1012.0 1012.0 0.0
04/08:30am 14.9 14.4 12.8 87 1.2 SE 7 11 4 6 1012.1 1012.1 0.0
04/08:00am 13.8 13.0 12.9 94 0.5 SSE 9 11 5 6 1012.2 1012.2 0.0
04/07:30am 13.4 12.2 12.8 96 0.3 SE 11 13 6 7 1012.0 1012.0 0.0
04/07:00am 12.8 10.6 12.2 96 0.3 ESE 15 19 8 10 1011.9 1011.9 0.0
04/06:30am 13.2 11.2 12.7 97 0.3 E 15 22 8 12 1011.9 1011.9 0.0
04/06:00am 13.1 11.5 12.8 98 0.2 ENE 13 17 7 9 1012.0 1012.0 0.0
04/05:30am 13.1 11.5 12.9 99 0.1 E 13 15 7 8 1012.2 1012.2 0.0
04/05:00am 13.2 11.7 13.0 99 0.1 ENE 13 20 7 11 1012.0 1012.0 0.0
04/04:30am 13.4 11.9 13.2 99 0.1 ENE 13 15 7 8 1012.1 1012.1 0.0
04/04:00am 13.2 11.7 13.0 99 0.1 E 13 17 7 9 1012.2 1012.2 0.0
04/03:30am 13.5 12.5 13.3 99 0.1 NE 11 15 6 8 1012.2 1012.2 0.0
04/03:00am 12.9 12.0 12.7 99 0.1 ENE 9 13 5 7 1012.2 1012.2 0.0
04/02:30am 11.7 12.2 11.5 99 0.1 CALM 0 0 0 0 1012.7 1012.7 0.0
04/02:00am 11.5 11.9 11.3 99 0.1 CALM 0 6 0 3 1013.3 1013.3 0.0
04/01:30am 11.4 10.5 11.2 99 0.1 SSW 7 11 4 6 1013.5 1013.5 0.0
04/01:00am 9.4 9.2 9.1 98 0.1 CALM 0 0 0 0 1013.5 1013.5 0.0
04/12:30am 10.0 8.6 9.7 98 0.2 WSW 7 7 4 4 1013.7 1013.7 0.0
04/12:00am 9.6 8.1 9.3 98 0.1 SSW 7 9 4 5 1013.7 1013.7 0.0
 
Date/Time
EDT
Temp
°C
App
Temp
°C
Dew
Point
°C
Rel
Hum
%
Delta-T
°C
Wind Press
QNH
hPa
Press
MSL
hPa
Rain since
9am
mm
Dir  Spd
km/h
Gust
km/h
Spd
kts
Gust
kts
03/11:30pm 9.6 8.3 9.1 97 0.2 S 6 7 3 4 1013.8 1013.8 0.0
03/11:00pm 10.0 8.2 9.4 96 0.3 S 9 9 5 5 1014.1 1014.1 0.0
03/10:30pm 10.5 10.5 9.7 95 0.4 CALM 0 0 0 0 1014.1 1014.1 0.0
03/10:00pm 11.7 12.0 10.9 95 0.4 CALM 0 6 0 3 1014.0 1014.0 0.0
03/09:30pm 12.3 12.0 11.4 94 0.5 N 4 7 2 4 1013.9 1013.9 0.0
03/09:00pm 14.4 14.1 13.4 94 0.6 N 7 7 4 4 1013.7 1013.7 0.0
03/08:30pm 14.9 14.2 13.1 89 1.0 N 9 9 5 5 1013.9 1013.9 0.0
03/08:00pm 16.0 15.1 13.7 86 1.3 N 11 11 6 6 1013.9 1013.9 0.0
03/07:30pm 17.0 16.5 13.9 82 1.8 N 9 13 5 7 1013.8 1013.8 0.0
03/07:00pm 17.3 16.0 13.6 79 2.1 N 13 15 7 8 1013.6 1013.6 0.0
03/06:30pm 17.5 16.4 14.2 81 1.9 NNE 13 17 7 9 1013.6 1013.6 0.0
03/06:00pm 17.8 16.2 13.9 78 2.2 NNE 15 20 8 11 1013.7 1013.7 0.0
03/05:30pm 18.3 16.4 14.2 77 2.4 N 17 20 9 11 1013.8 1013.8 0.0
03/05:00pm 18.5 16.9 14.0 75 2.6 NNE 15 19 8 10 1014.0 1014.0 0.0
03/04:30pm 19.2 17.6 15.1 77 2.4 NNE 17 22 9 12 1014.2 1014.2 0.0
03/04:00pm 18.7 16.8 14.2 75 2.6 NE 17 20 9 11 1014.5 1014.5 0.0
03/03:30pm 19.0 17.1 14.3 74 2.7 NNE 17 24 9 13 1014.7 1014.7 0.0
03/03:00pm 19.1 17.0 14.6 75 2.6 NNE 19 24 10 13 1015.1 1015.1 0.0
03/02:30pm 19.0 16.6 14.5 75 2.6 NNE 20 26 11 14 1015.3 1015.3 0.0
03/02:00pm 18.9 16.1 14.2 74 2.7 NNE 22 28 12 15 1015.4 1015.4 0.0
03/01:30pm 19.0 16.3 14.5 75 2.6 NNE 22 30 12 16 1015.6 1015.6 0.0
03/01:00pm 19.3 16.4 15.0 76 2.5 NNE 24 30 13 16 1015.9 1015.9 0.0
03/12:30pm 19.5 17.1 14.5 73 2.9 NE 20 28 11 15 1016.0 1016.0 0.0
03/12:00pm 18.7 15.7 13.6 72 2.9 NE 22 30 12 16 1016.3 1016.3 0.0
03/11:30am 18.5 14.9 13.1 71 3.0 NE 24 33 13 18 1016.3 1016.3 0.0
03/11:00am 18.1 15.5 13.8 76 2.4 NE 20 30 11 16 1016.6 1016.6 0.0
03/10:30am 17.9 15.3 13.8 77 2.3 ENE 20 30 11 16 1016.8 1016.8 0.0
03/10:00am 17.4 14.5 13.9 80 2.0 NE 22 28 12 15 1016.8 1016.8 0.0
03/09:30am 17.4 14.6 13.3 77 2.3 ENE 20 28 11 15 1017.0 1017.0 0.0
03/09:00am 16.2 13.5 12.9 81 1.8 NE 19 26 10 14 1017.1 1017.1 0.0

Other formats

Comma delimited format used in spreadsheet applications
http://www.bom.gov.au/fwo/IDT60801/IDT60801.94953.axf

JavaScript Object Notation format (JSON) in row-major order
http://www.bom.gov.au/fwo/IDT60801/IDT60801.94953.json

Data quality

Most of these data are generated automatically and are frequently updated. Quality checks on data are not normally performed. It is possible for incorrect values to appear. Refer to information at About Latest Weather Observations and please check the disclaimer before using these data.